Time;durP1;ratioP1;P1;durP2;ratioP2;P2;SDS_P1;SDS_P2;PMS_P1;PMS_P2;Temp;Humidity;BMP_temperature;BMP_pressure;BME280_temperature;BME280_humidity;BME280_pressure;Samples;Min_cycle;Max_cycle;Signal;HPM_P1;HPM_P2
2022/02/08 00:01:45;;;;;;;6.17;2.30;;;5.60;73.40;;;;;;5027755;28;20455;-46
2022/02/08 00:04:11;;;;;;;3.70;1.83;;;5.70;73.20;;;;;;5026374;28;20979;-45
2022/02/08 00:06:44;;;;;;;2.73;1.30;;;5.60;73.90;;;;;;5012043;28;20462;-47
2022/02/08 00:09:12;;;;;;;2.27;1.70;;;5.60;74.50;;;;;;5027877;28;20452;-47
2022/02/08 00:11:39;;;;;;;3.40;1.33;;;5.70;74.20;;;;;;5023701;28;20474;-46
2022/02/08 00:14:06;;;;;;;5.67;2.03;;;5.70;74.30;;;;;;5021012;28;20495;-46
2022/02/08 00:16:33;;;;;;;3.10;1.27;;;5.70;73.70;;;;;;5027367;28;20451;-46
2022/02/08 00:19:00;;;;;;;3.70;1.80;;;5.70;74.20;;;;;;5025689;28;20486;-47
2022/02/08 00:21:27;;;;;;;9.63;2.10;;;5.70;74.20;;;;;;5026394;28;20777;-47
2022/02/08 00:23:54;;;;;;;4.20;2.07;;;5.70;73.90;;;;;;5011328;28;20463;-46
2022/02/08 00:26:21;;;;;;;3.90;2.77;;;5.70;74.20;;;;;;5024617;28;20462;-47
2022/02/08 00:28:47;;;;;;;5.30;1.83;;;5.70;74.80;;;;;;5026277;28;20467;-46
2022/02/08 00:31:17;;;;;;;3.17;1.50;;;5.70;74.40;;;;;;5028797;28;20461;-46
2022/02/08 00:33:43;;;;;;;5.10;2.17;;;5.70;74.90;;;;;;5013887;28;20490;-46
2022/02/08 00:36:10;;;;;;;2.13;1.37;;;5.70;74.20;;;;;;5023965;28;20503;-46
2022/02/08 00:38:37;;;;;;;2.43;1.90;;;5.70;74.90;;;;;;5025212;28;20454;-47
2022/02/08 00:41:05;;;;;;;2.60;1.50;;;5.70;75.30;;;;;;5011793;28;20454;-46
2022/02/08 00:44:00;;;;;;;6.10;1.67;;;5.70;74.80;;;;;;5010603;28;20471;-46
2022/02/08 00:49:02;;;;;;;3.13;1.30;;;5.70;74.30;;;;;;5029203;28;20821;-46
2022/02/08 00:51:39;;;;;;;7.07;2.23;;;5.70;74.10;;;;;;5026497;28;20487;-46
2022/02/08 00:54:06;;;;;;;4.67;1.30;;;5.70;74.10;;;;;;5026602;28;20510;-47
2022/02/08 00:56:33;;;;;;;4.83;1.70;;;5.70;74.10;;;;;;5029220;28;20462;-46
2022/02/08 00:59:00;;;;;;;6.73;4.00;;;5.70;74.80;;;;;;5009057;28;20828;-46
2022/02/08 01:01:30;;;;;;;7.00;2.77;;;5.70;75.00;;;;;;5024962;28;20950;-47
2022/02/08 01:03:56;;;;;;;7.80;2.37;;;5.70;74.80;;;;;;5025190;28;20466;-47
2022/02/08 01:06:23;;;;;;;8.33;1.63;;;5.80;74.40;;;;;;5006887;28;20466;-47
2022/02/08 01:08:53;;;;;;;5.13;1.93;;;5.70;74.50;;;;;;5024017;28;20455;-47
2022/02/08 01:11:21;;;;;;;2.67;1.83;;;5.70;74.50;;;;;;5023337;28;20464;-47
2022/02/08 01:13:48;;;;;;;2.60;1.93;;;5.70;74.40;;;;;;5028358;28;20483;-46
2022/02/08 01:16:15;;;;;;;4.53;1.93;;;5.70;75.00;;;;;;5027041;28;20454;-46
2022/02/08 01:18:44;;;;;;;4.03;1.80;;;5.70;74.70;;;;;;5026572;28;20456;-47
2022/02/08 01:21:10;;;;;;;4.50;1.77;;;5.70;75.00;;;;;;5024664;28;20456;-46
2022/02/08 01:23:38;;;;;;;8.10;2.90;;;5.70;75.00;;;;;;5026162;28;20472;-46
2022/02/08 01:26:12;;;;;;;4.57;2.30;;;5.70;74.20;;;;;;5025029;28;21035;-46
2022/02/08 01:28:50;;;;;;;3.57;1.80;;;5.70;74.50;;;;;;5024087;28;20495;-47
2022/02/08 01:31:19;;;;;;;7.53;2.70;;;5.60;74.40;;;;;;5010688;28;20827;-46
2022/02/08 01:39:01;;;;;;;7.00;2.30;;;5.50;75.20;;;;;;5024513;28;20849;-46
2022/02/08 01:46:49;;;;;;;4.40;2.23;;;5.60;74.70;;;;;;5024816;28;20498;-47
2022/02/08 01:51:50;;;;;;;4.67;1.70;;;5.60;74.70;;;;;;5025747;28;20451;-46
2022/02/08 01:54:17;;;;;;;4.63;2.00;;;5.70;75.10;;;;;;5028231;28;20487;-47
2022/02/08 01:56:44;;;;;;;3.93;2.07;;;5.70;74.70;;;;;;5028673;28;20459;-47
2022/02/08 01:59:11;;;;;;;2.63;1.70;;;5.70;74.60;;;;;;5029134;28;20470;-47
2022/02/08 02:01:38;;;;;;;11.07;2.70;;;5.70;74.50;;;;;;5028095;28;20467;-47
2022/02/08 02:04:05;;;;;;;4.10;2.37;;;5.70;74.40;;;;;;5025125;28;20956;-46
2022/02/08 02:06:40;;;;;;;5.30;1.73;;;5.70;74.50;;;;;;5027528;28;20486;-46
2022/02/08 02:09:07;;;;;;;7.90;1.67;;;5.70;74.40;;;;;;5015881;28;20459;-47
2022/02/08 02:11:34;;;;;;;3.80;1.50;;;5.70;74.90;;;;;;5029175;28;20455;-47
2022/02/08 02:14:01;;;;;;;1.90;1.23;;;5.70;74.40;;;;;;5025954;28;20494;-47
2022/02/08 02:16:42;;;;;;;4.30;2.53;;;5.60;74.70;;;;;;5007783;28;20451;-47
2022/02/08 02:19:09;;;;;;;9.23;3.00;;;5.60;74.70;;;;;;5024452;28;20447;-47
2022/02/08 02:21:36;;;;;;;2.70;1.50;;;5.60;75.10;;;;;;5029114;28;20827;-46
2022/02/08 02:24:03;;;;;;;4.83;2.20;;;5.60;75.50;;;;;;5010591;28;20694;-47
2022/02/08 02:26:29;;;;;;;2.67;1.77;;;5.60;75.20;;;;;;5028877;28;20467;-47
2022/02/08 02:28:56;;;;;;;4.93;1.57;;;5.60;74.70;;;;;;5028136;28;20979;-46
2022/02/08 02:31:23;;;;;;;11.40;2.13;;;5.60;75.00;;;;;;4994759;28;21299;-47
2022/02/08 02:33:50;;;;;;;3.03;1.70;;;5.60;75.20;;;;;;5012296;28;20479;-46
2022/02/08 02:36:17;;;;;;;5.37;3.10;;;5.60;75.80;;;;;;5028892;28;20886;-47
2022/02/08 02:38:43;;;;;;;8.70;3.10;;;5.60;75.20;;;;;;5027476;28;20451;-46
2022/02/08 02:41:11;;;;;;;7.30;2.30;;;5.60;75.30;;;;;;5025949;28;20448;-47
2022/02/08 02:43:40;;;;;;;2.50;2.20;;;5.60;75.50;;;;;;5023390;28;20542;-46
2022/02/08 02:46:08;;;;;;;8.03;3.00;;;5.60;75.30;;;;;;5025882;28;21030;-46
2022/02/08 02:48:35;;;;;;;4.30;1.73;;;5.60;75.30;;;;;;5027239;28;20478;-47
2022/02/08 02:51:01;;;;;;;4.20;2.27;;;5.50;75.20;;;;;;5029105;28;20481;-46
2022/02/08 02:53:30;;;;;;;7.90;2.30;;;5.50;76.00;;;;;;5024373;28;20491;-47
2022/02/08 02:55:56;;;;;;;10.27;3.20;;;5.50;75.70;;;;;;5026228;28;20455;-47
2022/02/08 02:58:28;;;;;;;5.93;2.63;;;5.50;75.50;;;;;;5029624;28;20630;-47
2022/02/08 03:04:25;;;;;;;5.50;2.00;;;5.40;76.30;;;;;;5029728;28;20473;-46
2022/02/08 03:20:03;;;;;;;10.37;2.70;;;5.40;76.90;;;;;;5024287;28;20972;-47
2022/02/08 03:22:30;;;;;;;12.53;2.47;;;5.40;76.60;;;;;;5027609;28;20862;-47
2022/02/08 03:24:57;;;;;;;4.83;1.80;;;5.30;77.10;;;;;;5025682;28;20463;-46
2022/02/08 03:27:24;;;;;;;14.13;6.17;;;5.30;77.00;;;;;;5027157;28;20475;-46
2022/02/08 03:29:50;;;;;;;10.63;3.10;;;5.30;77.30;;;;;;5023568;28;20455;-47
2022/02/08 03:32:19;;;;;;;5.10;2.30;;;5.30;77.80;;;;;;5025239;28;20455;-46
2022/02/08 03:34:46;;;;;;;5.30;2.07;;;5.30;77.90;;;;;;5025441;28;20533;-47
2022/02/08 03:37:14;;;;;;;10.70;3.10;;;5.30;78.30;;;;;;5022816;28;20455;-46
2022/02/08 03:39:43;;;;;;;5.70;2.20;;;5.30;78.70;;;;;;5025798;28;20464;-47
2022/02/08 03:42:20;;;;;;;7.00;2.27;;;5.30;79.10;;;;;;5027573;28;20459;-46
2022/02/08 03:44:49;;;;;;;4.40;2.23;;;5.30;79.20;;;;;;5011745;28;20843;-48
2022/02/08 03:47:18;;;;;;;4.50;2.03;;;5.30;79.50;;;;;;5027133;28;20483;-48
2022/02/08 03:49:45;;;;;;;6.67;2.63;;;5.30;79.90;;;;;;5009023;28;20458;-47
2022/02/08 03:52:12;;;;;;;4.13;2.50;;;5.40;79.80;;;;;;5026811;28;20471;-47
2022/02/08 03:54:38;;;;;;;6.67;2.30;;;5.40;79.70;;;;;;5026281;28;20490;-46
2022/02/08 03:57:08;;;;;;;9.00;2.90;;;5.40;79.70;;;;;;5008098;28;20995;-47
2022/02/08 03:59:35;;;;;;;3.97;2.30;;;5.30;80.10;;;;;;5028500;28;20535;-47
2022/02/08 04:07:35;;;;;;;7.10;2.30;;;5.50;79.40;;;;;;5026367;28;20800;-46
2022/02/08 04:10:05;;;;;;;4.60;2.37;;;5.50;79.70;;;;;;5022529;28;20803;-47
2022/02/08 04:12:55;;;;;;;13.47;2.97;;;5.40;80.30;;;;;;5025815;28;20479;-47
2022/02/08 04:18:15;;;;;;;4.30;2.20;;;5.50;80.50;;;;;;5024015;28;20467;-47
2022/02/08 04:47:42;;;;;;;5.20;2.60;;;5.80;79.10;;;;;;5025559;28;20586;-46
2022/02/08 04:50:11;;;;;;;5.90;1.97;;;5.80;78.70;;;;;;5027681;28;20474;-46
2022/02/08 04:52:38;;;;;;;8.87;2.63;;;5.80;78.70;;;;;;5025656;28;20471;-47
2022/02/08 04:58:11;;;;;;;7.83;5.30;;;5.80;78.50;;;;;;5020070;28;20460;-46
2022/02/08 05:46:52;;;;;;;9.93;2.70;;;5.80;79.00;;;;;;5016658;28;20496;-46
2022/02/08 05:49:28;;;;;;;6.90;2.50;;;5.80;78.90;;;;;;5020746;28;20456;-47
2022/02/08 05:54:23;;;;;;;6.37;2.97;;;5.90;79.10;;;;;;5026560;28;20482;-47
2022/02/08 05:56:53;;;;;;;8.00;3.10;;;5.90;78.90;;;;;;5026228;28;20458;-48
2022/02/08 05:59:22;;;;;;;3.73;2.70;;;5.90;78.90;;;;;;5021628;28;20828;-46
2022/02/08 06:01:49;;;;;;;6.80;3.37;;;5.90;79.20;;;;;;5005967;28;20854;-46
2022/02/08 06:04:16;;;;;;;10.07;2.60;;;5.90;79.40;;;;;;5020520;28;20462;-46
2022/02/08 06:06:43;;;;;;;8.57;2.90;;;5.90;79.30;;;;;;5019758;28;20467;-46
2022/02/08 06:09:10;;;;;;;6.07;3.10;;;6.00;79.30;;;;;;5021306;28;20467;-46
2022/02/08 06:11:38;;;;;;;6.03;2.70;;;6.00;79.30;;;;;;5004801;28;20470;-46
2022/02/08 06:14:06;;;;;;;12.90;3.23;;;6.00;79.40;;;;;;5009238;28;20831;-46
2022/02/08 06:16:35;;;;;;;9.67;2.87;;;6.00;79.40;;;;;;5023241;28;20882;-46
2022/02/08 06:19:04;;;;;;;6.70;2.40;;;6.10;79.10;;;;;;5024540;28;20455;-47
2022/02/08 06:21:32;;;;;;;12.03;3.33;;;6.10;79.20;;;;;;5022965;28;20999;-47
2022/02/08 06:23:59;;;;;;;6.37;2.37;;;6.10;79.50;;;;;;5022976;28;20463;-47
2022/02/08 06:26:26;;;;;;;7.47;2.70;;;6.10;79.60;;;;;;4990940;28;20466;-47
2022/02/08 06:29:06;;;;;;;8.80;2.97;;;6.10;79.90;;;;;;5024446;28;20459;-47
2022/02/08 06:31:33;;;;;;;8.93;2.83;;;6.10;80.20;;;;;;5025514;28;20478;-47
2022/02/08 06:34:00;;;;;;;6.40;2.77;;;6.10;80.40;;;;;;5024614;28;20451;-47
2022/02/08 06:36:27;;;;;;;13.13;4.00;;;6.20;80.30;;;;;;5029363;28;21047;-48
2022/02/08 06:38:54;;;;;;;11.13;3.30;;;6.20;80.30;;;;;;5026181;28;20459;-47
2022/02/08 06:41:21;;;;;;;7.07;3.10;;;6.20;80.50;;;;;;5012406;28;20444;-47
2022/02/08 06:43:48;;;;;;;8.47;2.90;;;6.20;80.80;;;;;;5030671;28;20455;-47
2022/02/08 06:46:15;;;;;;;14.60;3.80;;;6.10;80.90;;;;;;5034365;28;20471;-47
2022/02/08 06:48:42;;;;;;;10.40;4.30;;;6.20;81.00;;;;;;5027456;28;20486;-47
2022/02/08 06:51:08;;;;;;;5.20;3.30;;;6.20;81.00;;;;;;5028918;28;20898;-46
2022/02/08 06:53:35;;;;;;;15.37;2.90;;;6.20;80.90;;;;;;5028187;28;20467;-46
2022/02/08 06:56:03;;;;;;;9.67;2.90;;;6.20;80.90;;;;;;5024928;28;20495;-46
2022/02/08 06:58:42;;;;;;;7.70;2.80;;;6.20;81.20;;;;;;5030747;28;20809;-46
2022/02/08 07:01:09;;;;;;;8.37;2.37;;;6.30;81.20;;;;;;5023166;28;20459;-47
2022/02/08 07:03:36;;;;;;;5.67;3.03;;;6.30;81.20;;;;;;5019674;28;20992;-46
2022/02/08 07:06:06;;;;;;;6.63;3.10;;;6.30;81.30;;;;;;5024096;28;20578;-46
2022/02/08 07:08:32;;;;;;;8.60;3.40;;;6.30;81.40;;;;;;5027404;28;20529;-47
2022/02/08 07:10:59;;;;;;;7.00;3.23;;;6.40;81.50;;;;;;5030773;28;20455;-46
2022/02/08 07:13:26;;;;;;;8.07;3.30;;;6.40;81.70;;;;;;5026567;28;20470;-46
2022/02/08 07:15:53;;;;;;;4.60;3.30;;;6.40;82.10;;;;;;5026096;28;20852;-46
2022/02/08 07:18:19;;;;;;;8.27;3.60;;;6.40;82.10;;;;;;5031281;28;20494;-46
2022/02/08 07:20:46;;;;;;;7.00;2.97;;;6.40;82.10;;;;;;5027051;28;20451;-46
2022/02/08 07:23:13;;;;;;;4.13;3.47;;;6.40;82.20;;;;;;5024701;28;20452;-47
2022/02/08 07:25:39;;;;;;;6.50;3.00;;;6.40;82.60;;;;;;5027624;28;20871;-47
2022/02/08 07:28:07;;;;;;;9.73;3.77;;;6.50;82.80;;;;;;5027769;28;21938;-46
2022/02/08 07:30:35;;;;;;;11.23;3.27;;;6.50;83.00;;;;;;5028532;28;20468;-46
2022/02/08 07:33:02;;;;;;;13.53;4.20;;;6.50;83.10;;;;;;5009462;28;21070;-46
2022/02/08 07:35:46;;;;;;;11.03;4.27;;;6.50;83.20;;;;;;5013953;28;20507;-46
2022/02/08 07:38:28;;;;;;;6.73;3.63;;;6.50;83.20;;;;;;5024475;28;20452;-46
2022/02/08 07:43:21;;;;;;;11.10;3.30;;;6.50;83.20;;;;;;5026286;28;20452;-46
2022/02/08 07:45:49;;;;;;;8.37;3.67;;;6.50;83.30;;;;;;5026376;28;20472;-47
2022/02/08 07:48:16;;;;;;;11.37;3.37;;;6.50;83.20;;;;;;5003646;28;20522;-46
2022/02/08 07:50:50;;;;;;;5.30;3.33;;;6.50;83.40;;;;;;5028375;28;20463;-47
2022/02/08 07:53:19;;;;;;;9.33;3.13;;;6.50;83.30;;;;;;5027957;28;20826;-47
2022/02/08 07:55:46;;;;;;;7.03;2.83;;;6.50;83.10;;;;;;5003314;28;20490;-47
2022/02/08 07:58:17;;;;;;;10.33;3.50;;;6.50;83.00;;;;;;5027970;28;20818;-47
2022/02/08 08:00:44;;;;;;;9.00;2.90;;;6.50;83.20;;;;;;5029671;28;20680;-46
2022/02/08 08:03:11;;;;;;;6.90;3.27;;;6.60;82.80;;;;;;5015513;28;20517;-47
2022/02/08 08:05:40;;;;;;;7.27;3.07;;;6.60;83.00;;;;;;5028626;28;20474;-46
2022/02/08 08:08:08;;;;;;;8.80;2.97;;;6.60;82.70;;;;;;5025275;28;20510;-47
2022/02/08 08:10:36;;;;;;;7.10;2.80;;;6.60;82.60;;;;;;5027068;28;20916;-47
2022/02/08 08:13:06;;;;;;;8.37;3.07;;;6.60;82.60;;;;;;5011663;28;20982;-47
2022/02/08 08:15:41;;;;;;;8.07;2.80;;;6.60;82.50;;;;;;5027422;28;20925;-47
2022/02/08 08:21:04;;;;;;;9.93;3.20;;;6.60;82.30;;;;;;5006471;28;21001;-47
2022/02/08 08:23:30;;;;;;;3.63;3.13;;;6.70;82.00;;;;;;5024494;28;20460;-47
2022/02/08 08:25:57;;;;;;;12.07;2.93;;;6.70;82.20;;;;;;5026567;28;20459;-47
2022/02/08 08:28:24;;;;;;;6.07;2.97;;;6.70;82.10;;;;;;5025762;28;20456;-46
2022/02/08 08:30:50;;;;;;;7.73;2.53;;;6.70;82.30;;;;;;5027695;28;21010;-47
2022/02/08 08:33:17;;;;;;;9.37;4.00;;;6.70;82.30;;;;;;5025996;28;20463;-47
2022/02/08 08:36:03;;;;;;;9.17;3.50;;;6.70;82.50;;;;;;5024837;28;20486;-46
2022/02/08 08:38:32;;;;;;;7.30;3.30;;;6.80;82.60;;;;;;5025887;28;21010;-47
2022/02/08 08:41:21;;;;;;;7.17;2.80;;;6.80;82.70;;;;;;5012803;28;20463;-47
2022/02/08 08:51:51;;;;;;;11.93;3.50;;;7.00;82.30;;;;;;5023542;28;20468;-46
2022/02/08 08:54:19;;;;;;;13.40;3.40;;;7.10;82.20;;;;;;5025943;28;20482;-46
2022/02/08 08:56:51;;;;;;;8.33;3.37;;;7.20;81.90;;;;;;5027538;28;20491;-46
2022/02/08 08:59:20;;;;;;;5.70;3.00;;;7.20;81.60;;;;;;5012208;28;20944;-46
2022/02/08 09:01:51;;;;;;;6.13;2.77;;;7.30;81.50;;;;;;5011897;28;20455;-47
2022/02/08 09:04:19;;;;;;;5.20;2.70;;;7.30;81.60;;;;;;5023352;28;20474;-47
2022/02/08 09:06:49;;;;;;;6.73;2.97;;;7.30;81.30;;;;;;5026753;28;20447;-47
2022/02/08 09:09:19;;;;;;;7.60;3.10;;;7.40;81.50;;;;;;5009030;28;20902;-47
2022/02/08 09:14:19;;;;;;;7.13;3.17;;;7.50;81.60;;;;;;5027345;28;20539;-46
2022/02/08 09:30:05;;;;;;;9.27;3.30;;;7.80;81.50;;;;;;5023290;28;21006;-46
2022/02/08 09:35:08;;;;;;;5.30;2.77;;;7.80;81.40;;;;;;5025032;28;20836;-46
2022/02/08 09:37:35;;;;;;;4.17;2.67;;;7.80;81.30;;;;;;5005948;28;20455;-46
2022/02/08 09:40:04;;;;;;;4.63;2.47;;;7.80;81.70;;;;;;5021889;28;20467;-46
2022/02/08 09:42:32;;;;;;;3.30;1.97;;;7.90;81.50;;;;;;5021490;28;20870;-46
2022/02/08 09:44:59;;;;;;;6.43;2.67;;;7.90;81.80;;;;;;5009538;28;20469;-46
2022/02/08 09:47:43;;;;;;;4.80;2.80;;;7.90;81.40;;;;;;5009128;28;20491;-46
2022/02/08 09:50:19;;;;;;;5.43;2.80;;;8.00;81.80;;;;;;4988328;28;21046;-47
2022/02/08 09:52:50;;;;;;;7.83;3.17;;;8.00;81.50;;;;;;5024514;28;20455;-46
2022/02/08 09:55:19;;;;;;;5.50;2.80;;;8.00;81.50;;;;;;5025422;28;20586;-46
2022/02/08 09:57:46;;;;;;;6.23;2.57;;;8.00;81.40;;;;;;5008909;28;20543;-46
2022/02/08 10:00:14;;;;;;;4.43;3.10;;;8.00;81.70;;;;;;5006272;28;20905;-46
2022/02/08 10:02:40;;;;;;;6.47;2.57;;;8.00;81.80;;;;;;5026734;28;20490;-46
2022/02/08 10:05:08;;;;;;;5.43;2.83;;;8.10;81.20;;;;;;5025169;28;20455;-47
2022/02/08 10:07:36;;;;;;;7.33;2.80;;;8.10;81.50;;;;;;5011277;28;20463;-47
2022/02/08 10:10:08;;;;;;;5.30;2.80;;;8.10;81.70;;;;;;5028333;28;20463;-47
2022/02/08 10:23:30;;;;;;;6.50;3.60;;;8.20;81.60;;;;;;5031936;28;20807;-47
2022/02/08 10:26:21;;;;;;;8.90;3.40;;;8.30;81.40;;;;;;5020788;28;20459;-47
2022/02/08 10:28:56;;;;;;;6.27;2.27;;;8.30;81.30;;;;;;5031143;28;20539;-46
2022/02/08 10:39:27;;;;;;;5.70;2.10;;;8.40;81.00;;;;;;5028446;28;20466;-47
2022/02/08 10:41:53;;;;;;;5.30;2.20;;;8.50;81.00;;;;;;5029619;28;20481;-47
2022/02/08 10:44:20;;;;;;;3.00;2.70;;;8.50;81.50;;;;;;5025469;28;20463;-47
2022/02/08 10:46:58;;;;;;;3.77;2.40;;;8.60;80.50;;;;;;5027055;28;20536;-47
2022/02/08 10:49:31;;;;;;;3.70;2.47;;;8.60;80.80;;;;;;5028154;28;20825;-47
2022/02/08 10:51:59;;;;;;;3.57;3.10;;;8.70;80.80;;;;;;5026588;28;20462;-47
2022/02/08 10:54:34;;;;;;;3.60;2.57;;;8.70;80.60;;;;;;5027523;28;20462;-47
2022/02/08 10:57:11;;;;;;;3.23;2.27;;;8.80;80.50;;;;;;5027556;28;20487;-47
2022/02/08 10:59:47;;;;;;;3.83;2.50;;;8.80;80.00;;;;;;5012129;28;20473;-47
2022/02/08 11:02:28;;;;;;;3.60;2.20;;;8.80;80.30;;;;;;5027784;28;20852;-47
2022/02/08 11:13:14;;;;;;;3.90;2.63;;;9.00;80.20;;;;;;5029264;28;20459;-47
2022/02/08 11:16:18;;;;;;;7.37;2.90;;;9.00;80.60;;;;;;5028509;28;20986;-46
2022/02/08 11:24:03;;;;;;;3.37;3.07;;;8.80;80.80;;;;;;5022676;28;21123;-46
2022/02/08 11:26:38;;;;;;;6.53;2.87;;;8.70;80.90;;;;;;5005329;28;20459;-46
2022/02/08 11:29:15;;;;;;;4.50;2.70;;;8.70;81.40;;;;;;5024707;28;20455;-46
2022/02/08 11:31:49;;;;;;;2.93;2.53;;;8.70;81.30;;;;;;5028509;28;20516;-46
2022/02/08 11:46:01;;;;;;;3.70;1.87;;;8.70;81.40;;;;;;5027623;28;20467;-46
2022/02/08 11:48:58;;;;;;;4.20;2.37;;;8.70;81.60;;;;;;5028424;28;20501;-46
2022/02/08 11:54:22;;;;;;;2.10;1.97;;;8.70;80.50;;;;;;5025537;28;20625;-46
2022/02/08 12:03:18;;;;;;;4.50;2.13;;;8.70;81.30;;;;;;5024923;28;20455;-46
2022/02/08 12:07:51;;;;;;;2.93;2.73;;;8.70;81.50;;;;;;5026063;28;20474;-46
2022/02/08 12:10:33;;;;;;;1.93;1.70;;;8.70;81.80;;;;;;5012155;28;20513;-46
2022/02/08 12:13:42;;;;;;;;;;;;;;;;;;;;;
2022/02/08 12:30:50;;;;;;;2.77;2.00;;;8.90;81.30;;;;;;5023438;28;20463;-46
2022/02/08 12:35:42;;;;;;;2.97;1.93;;;9.00;81.00;;;;;;5021794;28;20542;-46
2022/02/08 12:49:53;;;;;;;2.97;2.53;;;9.00;80.70;;;;;;5026684;28;20459;-47
2022/02/08 13:01:07;;;;;;;3.20;2.10;;;8.90;81.60;;;;;;5027027;28;20458;-46
2022/02/08 13:03:55;;;;;;;3.23;2.20;;;8.90;81.40;;;;;;5025993;28;20475;-47
2022/02/08 14:02:01;;;;;;;2.83;2.50;;;9.00;82.40;;;;;;5026225;28;20508;-47
2022/02/08 14:07:06;;;;;;;;;;;;;;;;;;;;;
2022/02/08 14:09:57;;;;;;;2.23;2.13;;;9.00;82.30;;;;;;5023295;28;20460;-46
2022/02/08 14:18:05;;;;;;;3.13;2.83;;;9.00;82.60;;;;;;5010620;28;20497;-46
2022/02/08 14:31:54;;;;;;;3.37;3.07;;;9.00;82.80;;;;;;5026107;28;20462;-47
2022/02/08 14:34:46;;;;;;;2.67;2.47;;;9.00;82.50;;;;;;5024435;28;20949;-47
2022/02/08 15:07:52;;;;;;;6.00;2.43;;;8.80;83.50;;;;;;4997935;28;20550;-47
2022/02/08 15:10:03;;;;;;;2.77;2.23;;;8.80;83.70;;;;;;5031784;28;20543;-46
2022/02/08 15:12:34;;;;;;;2.60;2.40;;;8.80;83.80;;;;;;5025628;28;21194;-46
2022/02/08 15:15:14;;;;;;;2.73;2.50;;;8.80;83.80;;;;;;5024588;28;20466;-46
2022/02/08 15:17:41;;;;;;;3.80;2.83;;;8.70;84.20;;;;;;5027537;28;21259;-47
2022/02/08 15:20:10;;;;;;;3.13;2.83;;;8.70;84.20;;;;;;5027272;28;20506;-46
2022/02/08 15:22:39;;;;;;;4.10;2.63;;;8.80;84.00;;;;;;5026477;28;20566;-46
2022/02/08 15:25:12;;;;;;;4.80;3.40;;;8.70;84.10;;;;;;5028103;28;20826;-47
2022/02/08 15:27:40;;;;;;;3.80;3.00;;;8.70;84.40;;;;;;5027811;28;20459;-47
2022/02/08 15:30:09;;;;;;;3.03;2.67;;;8.80;84.40;;;;;;5030391;28;20454;-47
2022/02/08 15:32:40;;;;;;;5.57;3.50;;;8.80;84.30;;;;;;5027411;28;20831;-47
2022/02/08 15:35:11;;;;;;;3.37;3.00;;;8.80;84.30;;;;;;5009836;28;21007;-47
2022/02/08 15:37:38;;;;;;;4.37;3.77;;;8.80;84.30;;;;;;5023058;28;20526;-47
2022/02/08 15:40:09;;;;;;;4.87;3.27;;;8.80;84.30;;;;;;5026938;28;20459;-47
2022/02/08 15:42:40;;;;;;;3.83;3.20;;;8.80;84.30;;;;;;5024879;28;20514;-47
2022/02/08 15:48:09;;;;;;;5.27;4.77;;;8.90;84.10;;;;;;5006724;28;20577;-47
2022/02/08 15:53:14;;;;;;;4.67;3.77;;;8.80;84.20;;;;;;5024430;28;20460;-47
2022/02/08 16:00:10;;;;;;;4.70;3.50;;;8.80;84.30;;;;;;5025661;28;21558;-47
2022/02/08 16:10:03;;;;;;;3.23;3.00;;;8.80;84.60;;;;;;5025930;28;20542;-47
2022/02/08 16:12:40;;;;;;;4.10;3.70;;;8.80;84.50;;;;;;5014853;28;20809;-47
2022/02/08 16:27:50;;;;;;;3.73;3.40;;;8.80;84.70;;;;;;5011235;28;20463;-46
2022/02/08 16:52:26;;;;;;;3.47;2.70;;;8.80;85.10;;;;;;5015112;28;20459;-47
2022/02/08 16:55:05;;;;;;;2.57;2.37;;;8.80;85.20;;;;;;5025687;28;20491;-47
2022/02/08 16:57:40;;;;;;;2.83;2.60;;;8.70;85.20;;;;;;5024821;28;20529;-47
2022/02/08 17:00:10;;;;;;;3.07;2.40;;;8.80;85.20;;;;;;5024724;28;20461;-47
2022/02/08 17:02:40;;;;;;;2.60;2.33;;;8.80;85.20;;;;;;5024167;28;20961;-47
2022/02/08 17:05:07;;;;;;;2.47;2.27;;;8.80;85.20;;;;;;5026755;28;20443;-47
2022/02/08 17:07:38;;;;;;;2.60;2.40;;;8.80;85.00;;;;;;5029754;28;20942;-47
2022/02/08 17:10:09;;;;;;;2.67;2.47;;;8.80;85.00;;;;;;5023497;28;20491;-47
2022/02/08 17:12:42;;;;;;;3.87;2.40;;;8.80;85.10;;;;;;5011476;28;20503;-47
2022/02/08 17:45:37;;;;;;;;;;;;;;;;;;;;;
2022/02/08 17:47:43;;;;;;;2.33;2.20;;;8.90;84.70;;;;;;5042752;28;20493;-49
2022/02/08 17:50:13;;;;;;;2.30;2.10;;;8.90;84.70;;;;;;5036439;28;20547;-49
2022/02/08 17:52:41;;;;;;;2.90;2.37;;;8.90;84.60;;;;;;5041700;28;20916;-48
2022/02/08 17:55:10;;;;;;;2.83;2.57;;;8.90;84.60;;;;;;5040928;28;20456;-50
2022/02/08 17:57:37;;;;;;;4.10;3.20;;;8.90;84.50;;;;;;5031360;28;20508;-49
2022/02/08 18:00:08;;;;;;;4.07;3.70;;;8.90;84.50;;;;;;5042118;28;20458;-49
2022/02/08 18:02:36;;;;;;;2.50;2.37;;;8.90;84.60;;;;;;5026727;28;20451;-48
2022/02/08 18:05:03;;;;;;;5.17;3.27;;;9.00;84.40;;;;;;5043459;28;20452;-49
2022/02/08 18:07:30;;;;;;;4.50;3.77;;;8.90;84.40;;;;;;5036972;28;20581;-49
2022/02/08 18:09:57;;;;;;;2.63;2.43;;;9.00;84.60;;;;;;5040385;28;20471;-49
2022/02/08 18:12:26;;;;;;;2.30;2.10;;;9.00;84.50;;;;;;5034796;28;20555;-49
2022/02/08 18:14:57;;;;;;;3.03;2.83;;;9.00;84.40;;;;;;5040878;28;20527;-49
2022/02/08 18:17:29;;;;;;;3.53;2.80;;;9.00;84.30;;;;;;5037844;28;20494;-49
2022/02/08 18:20:08;;;;;;;2.43;1.90;;;9.00;84.30;;;;;;5026451;28;20519;-49
2022/02/08 18:25:40;;;;;;;3.00;2.23;;;9.00;84.30;;;;;;5038716;28;20510;-48
2022/02/08 19:11:52;;;;;;;3.30;3.00;;;9.00;84.60;;;;;;5044771;28;20499;-50
2022/02/08 19:15:00;;;;;;;2.40;2.20;;;9.00;84.50;;;;;;5038843;28;20503;-49
2022/02/08 19:17:22;;;;;;;2.10;1.90;;;9.10;84.40;;;;;;5015149;28;20474;-47
2022/02/08 19:20:05;;;;;;;2.47;2.20;;;9.10;84.30;;;;;;5028307;28;20872;-47
2022/02/08 19:22:32;;;;;;;1.90;1.80;;;9.10;84.40;;;;;;5024008;28;20556;-47
2022/02/08 19:24:59;;;;;;;1.93;1.83;;;9.10;84.30;;;;;;5024107;28;20824;-46
2022/02/08 19:27:26;;;;;;;3.20;2.00;;;9.10;84.30;;;;;;5012825;28;20553;-46
2022/02/08 19:29:53;;;;;;;1.97;1.87;;;9.00;84.40;;;;;;5030171;28;20491;-46
2022/02/08 19:32:19;;;;;;;2.03;1.90;;;9.00;84.30;;;;;;5027540;28;20550;-46
2022/02/08 19:34:47;;;;;;;3.90;3.00;;;9.10;84.30;;;;;;5027881;28;20463;-47
2022/02/08 19:37:17;;;;;;;2.00;1.80;;;9.10;84.30;;;;;;5027774;28;20470;-47
2022/02/08 19:39:45;;;;;;;2.27;2.07;;;9.00;84.40;;;;;;5027087;28;20463;-47
2022/02/08 19:42:13;;;;;;;1.97;1.83;;;9.00;84.50;;;;;;5009582;28;20463;-47
2022/02/08 19:44:41;;;;;;;2.10;2.00;;;9.10;84.30;;;;;;5032239;28;20515;-50
2022/02/08 19:47:10;;;;;;;2.10;1.90;;;9.10;84.10;;;;;;5030685;28;20515;-50
2022/02/08 19:49:37;;;;;;;2.83;2.60;;;9.10;84.00;;;;;;5034619;28;20542;-49
2022/02/08 19:52:04;;;;;;;5.00;4.00;;;9.10;84.00;;;;;;5031618;28;20502;-49
2022/02/08 19:54:37;;;;;;;3.87;3.57;;;9.10;84.00;;;;;;5026574;28;20847;-50
2022/02/08 19:57:18;;;;;;;2.70;2.50;;;9.10;84.10;;;;;;5030745;28;20998;-50
2022/02/08 19:59:45;;;;;;;2.50;2.20;;;9.10;84.10;;;;;;5016180;28;20549;-49
2022/02/08 20:02:15;;;;;;;2.67;2.43;;;9.10;84.10;;;;;;5031353;28;20456;-49
2022/02/08 20:04:45;;;;;;;2.43;2.23;;;9.10;83.90;;;;;;5031505;28;20448;-47
2022/02/08 20:07:13;;;;;;;2.37;2.17;;;9.10;84.10;;;;;;5030566;28;21110;-47
2022/02/08 20:09:40;;;;;;;2.27;2.03;;;9.10;84.10;;;;;;5025242;28;20474;-47
2022/02/08 20:12:26;;;;;;;2.40;2.20;;;9.10;84.00;;;;;;5012481;28;20464;-47
2022/02/08 20:15:00;;;;;;;2.77;2.13;;;9.10;84.00;;;;;;5027508;28;20470;-46
2022/02/08 20:17:26;;;;;;;1.90;1.70;;;9.10;83.80;;;;;;5024231;28;20499;-47
2022/02/08 20:19:55;;;;;;;2.50;2.30;;;9.10;84.10;;;;;;5023630;28;20460;-47
2022/02/08 20:22:22;;;;;;;3.10;2.80;;;9.10;84.30;;;;;;5026027;28;20454;-47
2022/02/08 20:24:52;;;;;;;4.83;3.47;;;9.10;84.30;;;;;;5030515;28;20826;-47
2022/02/08 20:30:29;;;;;;;3.10;2.80;;;9.10;84.00;;;;;;4969525;28;20450;-47
2022/02/08 20:33:00;;;;;;;2.83;2.50;;;9.10;83.90;;;;;;5019815;28;20475;-47
2022/02/08 20:35:27;;;;;;;3.40;2.37;;;9.20;83.90;;;;;;5027867;28;20530;-47
2022/02/08 20:37:54;;;;;;;2.53;2.33;;;9.10;83.80;;;;;;5006363;28;20483;-47
2022/02/08 20:40:21;;;;;;;2.80;2.57;;;9.10;83.90;;;;;;5013626;28;20495;-50
2022/02/08 20:42:53;;;;;;;2.63;2.43;;;9.10;84.00;;;;;;5028930;28;20865;-50
2022/02/08 20:45:21;;;;;;;2.60;2.37;;;9.10;83.90;;;;;;5029156;28;20443;-50
2022/02/08 20:47:48;;;;;;;2.90;2.67;;;9.10;84.10;;;;;;5030899;28;20967;-50
2022/02/08 20:50:18;;;;;;;2.50;2.30;;;9.10;84.10;;;;;;5030066;28;20562;-50
2022/02/08 20:52:57;;;;;;;2.40;2.20;;;9.10;84.00;;;;;;5009902;28;21046;-50
2022/02/08 20:55:36;;;;;;;3.60;2.97;;;9.10;84.00;;;;;;5023694;28;20958;-50
2022/02/08 20:58:13;;;;;;;2.73;2.43;;;9.10;84.10;;;;;;5024456;28;20478;-49
2022/02/08 21:00:41;;;;;;;2.43;2.30;;;9.10;84.10;;;;;;5027421;28;20548;-50
2022/02/08 21:06:01;;;;;;;2.80;2.50;;;9.10;84.00;;;;;;5029125;28;20471;-49
2022/02/08 21:08:29;;;;;;;2.50;2.30;;;9.10;83.90;;;;;;5024400;28;20463;-50
2022/02/08 21:11:00;;;;;;;3.53;3.13;;;9.10;83.80;;;;;;5027232;28;20460;-49
2022/02/08 21:13:43;;;;;;;2.67;2.43;;;9.10;83.90;;;;;;5011199;28;20546;-51
2022/02/08 21:16:12;;;;;;;3.60;2.40;;;9.10;83.90;;;;;;5024288;28;20586;-51
2022/02/08 21:18:39;;;;;;;2.43;2.10;;;9.10;83.90;;;;;;5024830;28;20849;-51
2022/02/08 21:21:07;;;;;;;2.70;2.47;;;9.10;83.80;;;;;;5010024;28;20494;-49